City's sites:

title views votes rating creation
?never been here 345 12 (3.08)  2010-02-07
?pastel negro 544 14 (2.50)  2010-02-07
?dizzy 251 8 (3.38)  2010-02-07
?two pictures from my desktop 821 16 (3.69)  2010-02-09
?broken clock realizes he is the last object left in the ... 378 10 (3.20)  2010-02-09
?heroes of old 548 19 (3.74)  2010-02-09
?mr. price 387 8 (3.25)  2010-02-09
?Music I Like - Part 1 561 10 (3.60)  2010-02-10
?Music I Like - Part 2 340 13 (3.54)  2010-02-10
?Music I Like - Part 3 496 13 (3.69)  2010-02-10
?Music I Like - Part 4 356 5 (3.20)  2010-02-10
?intense 479 9 (3.78)  2010-02-10
?oh SNAP 711 9 (3.22)  2010-02-10
?Music I Like - Part 5 491 9 (3.56)  2010-02-10
?SignlanguageTMND 333 14 (3.86)  2010-02-10
?lol internet (refresh) 521 6 (3.17)  2010-02-12
?Dumbeldore kills snape! 3,231 67 (4.03)  2010-02-12
?prairiedogeric10 tribute site 610 23 (3.96)  2010-02-13
?Legolewdite fan club 1,226 38 (3.87)  2010-02-13
?Connery retires 347 13 (3.85)  2010-02-13
?TOURNEY4: lol internet 505 7 (2.43)  2010-02-15
?Speed Deemon 903 23 (3.74)  2010-02-23
?Tribute: ASSCOCKredux 1,548 64 (3.91)  2010-02-23
?some light jazz with Robert De Niro 777 12 (3.50)  2010-02-23
?In What Language 1,400 34 (3.74)  2010-02-24
?go go go go go go go go go go go go go go go go ... 1,976 23 (3.74)  2010-02-24
?FEARCONDOM'S FAMILY Q U I L T 564 11 (3.55)  2010-02-24
?TEST 685 19 (3.84)  2010-02-26
?....someday, oh dream maker DUNANANANAN... 5,005 148 (3.96)  2010-02-28
?DOUGH FUNNIE HOMO DICKS 549 12 (3.58)  2010-03-01
?Using a concrete bricK 537 17 (3.82)  2010-03-01
?I had sex with a Kayan Tribe woman, little help plea... 831 11 (3.36)  2010-03-03
?Adventure 4 968 17 (3.65)  2010-03-03
?the standoff 415 9 (3.67)  2010-03-03
?alley children 486 11 (3.91)  2010-03-05
?Steven Seagal isn't impressed 9,721 180 (4.16)  2010-03-05
?Daunting Steps 215 7 (3.00)  2010-03-05
?Cruel and Unusual 6,075 163 (4.24)  2010-03-09
?DancehallTMND 420 10 (3.80)  2010-03-12
?FUCK OUT MY FACE 485 5 (2.60)  2010-03-18
?16, no dither 729 18 (3.94)  2010-03-20
?say hi to my girlfriend 898 16 (3.81)  2010-03-21
?TT 523 16 (3.88)  2010-03-23
?jimmm thinks about his next five 624 20 (3.80)  2010-03-24
?THE TELEKINETIC MAN 261 18 (3.50)  2010-03-25
?. 118 7 (2.71)  2010-03-26
?1! 306 17 (3.35)  2010-03-26
?Fake crocodile takes it to the limit one more time 588 9 (3.67)  2010-03-27
?croctheme 394 4 (3.25)  2010-03-27
?crocodile site 352 6 (3.50)  2010-03-27
?CROC MAKES A 187 LOOK EASY 172 6 (3.33)  2010-03-27
?New Croc SIte 159 5 (3.40)  2010-03-27
?L 303 19 (3.63)  2010-03-27
?crocodile sIte 224 10 (3.50)  2010-03-30
?Pleasant® 270 8 (3.38)  2010-03-30
?A Lovely Ride 224 13 (3.85)  2010-03-30
?It's glorious today 283 14 (3.64)  2010-04-01
?Na - Zu 399 10 (3.70)  2010-04-01
?WHO'NOWOWOWOW 408 5 (2.60)  2010-04-03
?part of your world 198 5 (3.00)  2010-04-04
?fff 171 4 (3.50)  2010-04-04
?FIve-star webiste 917 16 (1.94)  2010-04-04
?Captain Haddock 1,670 28 (3.86)  2010-04-04
?, 248 9 (3.33)  2010-04-05
?indnian 356 7 (2.71)  2010-04-05
?Ricky Manning tribute sIte will be Underway soon ! 204 3 (3.67)  2010-04-06
?Epic Domain Grab 191 6 (2.17)  2010-04-06
?retirement site 160 6 (2.83)  2010-04-06
?Paul newman doesn't drive a VAN 180 4 (3.00)  2010-04-06
?Vince McMan 313 7 (2.86)  2010-04-06
?LOL 281 5 (3.00)  2010-04-06
?wut 267 4 (2.75)  2010-04-06
?www.coachcarter.ytmnd.com 296 8 (1.88)  2010-04-06
?untitled 269 7 (2.14)  2010-04-09
?ExpirimennalTYTMND 332 8 (3.38)  2010-04-09
?jioejejejoijiojiojioejiejoijeoj 380 14 (3.79)  2010-04-09
?Jake Steele catches a fly ball 324 4 (3.50)  2010-04-10
?Jake Steele forgets the milk 306 3 (3.00)  2010-04-10
?Jake Steele just found his watch 293 4 (3.25)  2010-04-10
?Jake Steele grows up a bit 396 7 (2.86)  2010-04-10
?KRA2008 336 5 (2.60)  2010-04-10
?Fuck the world 721 26 (3.88)  2010-04-16
?a sexual guy 468 10 (2.30)  2010-05-12
?well 274 4 (4.25)  2010-09-03
?gay site you can watch while thinking about stuff 1,493 14 (4.07)  2010-09-13
?site dedicated to great warchief 1,237 12 (3.58)  2010-09-16
?38388 816 8 (3.88)  2010-09-16
?watching the world buzz by 472 4 (3.50)  2010-09-16
?what now 1,389 17 (3.94)  2010-09-16